This is the latest recevied weather packets stored in our database for station/object KC5AV. If no packets are shown the sender has not sent any weather packets the latest 10 day(s).
| Time | Temp. | Humidity | Pressure | Rain* | Wind** | Luminosity | Snow |
|---|---|---|---|---|---|---|---|
| 1777649660 | 12.22° C | 98% | 1018.8 hPa | 2.29 mm | - | 39 W/m² | - |
| 1777649355 | 12.22° C | 98% | 1018.7 hPa | 1.78 mm | - | 42 W/m² | - |
| 1777649053 | 12.22° C | 98% | 1018.7 hPa | 1.78 mm | - | 44 W/m² | - |
| 1777647036 | 12.22° C | 98% | 1017.4 hPa | 0.51 mm | - | 48 W/m² | - |
| 1777646731 | 12.22° C | 98% | 1017.4 hPa | 0.51 mm | - | 48 W/m² | - |
| 1777646426 | 12.22° C | 98% | 1017.4 hPa | 0.51 mm | - | 44 W/m² | - |
| 1777646123 | 12.22° C | 98% | 1017.6 hPa | 0.51 mm | - | 35 W/m² | - |
| 1777645821 | 12.22° C | 98% | 1017.6 hPa | 0.51 mm | - | 35 W/m² | - |
| 1777645518 | 12.22° C | 98% | 1017.6 hPa | 0.51 mm | - | 35 W/m² | - |
| 1777643836 | 11.67° C | 97% | 1017.6 hPa | 0.51 mm | - | 32 W/m² | - |
| 1777643534 | 11.67° C | 97% | 1017.6 hPa | 0.51 mm | - | 32 W/m² | - |
| 1777643231 | 11.67° C | 97% | 1017.6 hPa | 1.27 mm | - | 29 W/m² | - |
| 1777642928 | 11.67° C | 97% | 1017.3 hPa | 1.27 mm | - | 28 W/m² | - |
| 1777642624 | 11.67° C | 97% | 1017.3 hPa | 1.27 mm | - | 28 W/m² | - |
| 1777642321 | 11.67° C | 97% | 1017.3 hPa | 1.27 mm | - | 28 W/m² | - |
| 1777642018 | 11.67° C | 97% | 1017.5 hPa | 1.27 mm | - | 27 W/m² | - |
| 1777641713 | 11.67° C | 97% | 1017.4 hPa | 1.78 mm | - | 25 W/m² | - |
| 1777641409 | 11.67° C | 97% | 1017.2 hPa | 1.78 mm | - | 27 W/m² | - |
| 1777641104 | 11.67° C | 97% | 1017.3 hPa | 2.29 mm | - | 23 W/m² | - |
| 1777640800 | 11.67° C | 97% | 1017.3 hPa | 2.29 mm | - | 23 W/m² | - |
| 1777640498 | 11.67° C | 97% | 1017.5 hPa | 3.05 mm | - | 24 W/m² | - |
| 1777640195 | 11.67° C | 97% | 1017.7 hPa | 1.78 mm | - | 13 W/m² | - |
| 1777639891 | 11.67° C | 97% | 1017.7 hPa | 1.78 mm | - | 13 W/m² | - |
| 1777639588 | 11.67° C | 97% | 1017.7 hPa | 1.78 mm | - | 13 W/m² | - |
| 1777639285 | 11.67° C | 97% | 1017.7 hPa | 1.78 mm | - | 11 W/m² | - |
* Rain latest hour (hover to see other rain measurements)
** Current wind speed in m/s (hover to see current wind gust speed)